createdAt,value
2019-01-18T00:00:01.081Z,1.97
2019-01-18T01:02:05.160Z,0.47
2019-01-18T01:07:06.454Z,0.87
2019-01-18T01:12:07.748Z,0.57
2019-01-18T01:17:09.065Z,0.40
2019-01-18T01:22:11.114Z,0.50
2019-01-18T01:27:15.928Z,0.37
2019-01-18T02:35:37.290Z,1.20
2019-01-18T02:40:38.567Z,1.20
2019-01-18T02:45:44.913Z,1.30
2019-01-18T02:50:46.227Z,1.23
2019-01-18T02:55:47.493Z,1.23
2019-01-18T04:04:10.351Z,3.00
2019-01-18T04:09:11.662Z,3.57
2019-01-18T04:14:13.686Z,1.90
2019-01-18T04:19:15.070Z,2.70
2019-01-18T04:24:16.364Z,3.27
2019-01-18T04:29:17.641Z,1.40
2019-01-18T05:31:19.277Z,2.37
2019-01-18T05:36:20.565Z,4.37
2019-01-18T05:41:21.830Z,2.80
2019-01-18T05:46:23.113Z,2.83
2019-01-18T05:51:24.408Z,2.67
2019-01-18T05:56:26.456Z,3.73
2019-01-18T07:04:48.805Z,2.20
2019-01-18T07:09:50.855Z,1.57
2019-01-18T07:14:55.494Z,2.90
2019-01-18T07:19:56.959Z,2.63
2019-01-18T07:24:58.273Z,1.83
2019-01-18T07:29:59.574Z,1.80
2019-01-18T08:32:03.199Z,6.03
2019-01-18T08:37:04.566Z,4.60
2019-01-18T08:42:05.976Z,3.00
2019-01-18T08:47:08.946Z,2.17
2019-01-18T08:52:10.300Z,1.90
2019-01-18T08:57:11.677Z,3.80
2019-01-18T10:05:35.424Z,4.90
2019-01-18T10:10:37.550Z,2.03
2019-01-18T10:15:38.897Z,3.17
2019-01-18T10:20:40.319Z,2.20
2019-01-18T10:25:41.764Z,4.53
2019-01-18T11:34:04.922Z,2.57
2019-01-18T11:39:06.961Z,3.87
2019-01-18T11:44:08.253Z,4.13
2019-01-18T11:49:09.532Z,3.03
2019-01-18T11:54:11.541Z,4.20
2019-01-18T11:59:12.804Z,3.00
2019-01-18T13:01:14.894Z,1.80
2019-01-18T13:06:16.187Z,5.73
2019-01-18T13:11:17.481Z,3.47
2019-01-18T13:16:18.763Z,2.60
2019-01-18T13:21:20.058Z,3.67
2019-01-18T13:26:22.128Z,2.47
2019-01-18T14:34:43.329Z,3.87
2019-01-18T14:39:44.673Z,2.13
2019-01-18T14:44:46.738Z,2.57
2019-01-18T14:49:48.675Z,3.07
2019-01-18T14:54:50.004Z,3.23
2019-01-18T14:59:51.418Z,4.10
2019-01-18T16:01:54.050Z,6.03
2019-01-18T16:06:55.453Z,12.57
2019-01-18T16:11:56.725Z,11.67
2019-01-18T16:16:58.067Z,6.77
2019-01-18T16:21:59.342Z,6.30
2019-01-18T16:27:00.640Z,5.80
2019-01-18T16:32:01.956Z,7.77
2019-01-18T16:37:03.254Z,6.93
2019-01-18T16:42:06.217Z,10.23
2019-01-18T16:47:09.614Z,7.27
2019-01-18T16:52:11.792Z,5.90
2019-01-18T16:57:13.841Z,7.73
2019-01-18T17:02:16.685Z,5.47
2019-01-18T17:07:36.483Z,7.83
2019-01-18T17:12:38.282Z,10.57
2019-01-18T17:17:54.209Z,8.60
2019-01-18T17:22:55.509Z,6.57
2019-01-18T17:27:57.529Z,9.73
2019-01-18T17:32:58.804Z,8.70
2019-01-18T17:38:00.122Z,6.37
2019-01-18T17:43:05.900Z,6.20
2019-01-18T17:48:19.108Z,6.63
2019-01-18T17:53:23.206Z,5.57
2019-01-18T17:58:33.627Z,6.47
2019-01-18T18:03:51.245Z,4.90
2019-01-18T18:09:08.381Z,4.60
2019-01-18T18:26:05.342Z,7.87
2019-01-18T18:36:53.802Z,8.13
2019-01-18T18:42:03.776Z,7.13
2019-01-18T18:47:27.842Z,6.13
2019-01-18T18:58:20.538Z,9.63
2019-01-18T19:03:32.477Z,6.37
2019-01-18T19:08:40.585Z,9.77
2019-01-18T19:14:15.753Z,7.43
2019-01-18T19:19:37.964Z,8.13
2019-01-18T19:24:47.101Z,7.63
2019-01-18T19:35:37.576Z,9.13
2019-01-18T19:41:07.924Z,5.97
2019-01-18T19:46:13.025Z,9.80
2019-01-18T19:51:42.097Z,6.87
2019-01-18T19:56:52.444Z,9.00
2019-01-18T20:02:25.635Z,9.03
2019-01-18T20:07:34.684Z,7.30
2019-01-18T20:12:45.685Z,9.27
2019-01-18T20:17:55.750Z,7.93
2019-01-18T20:23:07.920Z,9.30
2019-01-18T20:28:24.704Z,7.37
2019-01-18T20:39:33.780Z,6.50
2019-01-18T20:50:41.829Z,7.32
2019-01-18T20:56:07.670Z,8.60
2019-01-18T21:01:16.656Z,6.00
2019-01-18T21:18:29.027Z,6.18
2019-01-18T21:23:51.145Z,6.33
2019-01-18T21:35:17.973Z,7.62
2019-01-18T21:40:27.974Z,6.20
2019-01-18T21:51:39.644Z,9.15
2019-01-18T21:56:49.935Z,8.60
2019-01-18T22:01:55.661Z,8.67
2019-01-18T22:07:19.077Z,7.77
2019-01-18T22:18:28.506Z,10.25
2019-01-18T22:23:32.198Z,8.57
2019-01-18T22:28:57.291Z,7.90
2019-01-18T22:34:07.201Z,8.17
2019-01-18T22:39:35.362Z,9.47
2019-01-18T22:44:44.397Z,8.40
2019-01-18T22:49:47.544Z,8.40
2019-01-18T22:54:59.663Z,7.40
2019-01-18T23:00:18.180Z,7.07
2019-01-18T23:31:04.500Z,5.53
2019-01-18T23:36:12.103Z,4.67
2019-01-18T23:41:31.942Z,9.50
2019-01-18T23:46:47.156Z,7.97
2019-01-18T23:52:01.437Z,9.30
2019-01-18T23:57:09.557Z,6.20
